首页
METAR-TAF:

METAR-TAF

机场 :

奈洛比, 肯尼亚

乔莫·肯雅塔国际机场

纬度: 01-19S, 经度: 036-55E, 海拔: 1624米

当前天气观测

该预报发布于31分钟前的01:00 UTC
风速6节,风向东转东北
温度 18°C
湿度 77%
气压 1019 hPa
能见度10公里或以上
多云层高于1700英尺

METAR: HKJK 190100Z 07006KT 9999 BKN017 18/14 Q1019

时间: 04:31 (01:31 UTC)

预报

该预报发布于2小时和31分钟前的23:00 UTC
预报有效从19日的 00点(UTC)到 20日的 06点(UTC)
风速5节,风向
能见度10公里或以上
散云层高于2100英尺
成为
从 19日的 07点(UTC)到 19日的 11点(UTC)
风速10节,风向北转东北
散云层高于2800英尺
短暂存在
从 19日的 14点(UTC)到 19日的 18点(UTC)
少量云层高于2900英尺, 积雨云.
多云层高于3000英尺
小阵雨
成为
从 19日的 21点(UTC)到 19日的 24点(UTC)
风速5节,风向
多云层高于2500英尺

TAF: HKJK 182300Z 1900/2006 36005KT 9999 SCT021 BECMG 1907/1911 03010KT SCT028 TEMPO 1914/1918 -SHRA FEW029CB BKN030 BECMG 1921/1924 01005KT BKN025

超过4000个机场的气象观测和天气预报(METAR&TAF报告)。

可查询的气象台以黄色和红色小点在地图上表示。

将鼠标移到小点上方,可查看气象台名称。

然后点击查看天气观测和预报。

如需切换地图:点击带黑十字的绿色按钮放大地图;点击带横线的绿色按钮缩小地图;或者点击绿色箭头查看邻近地区的地图。


METAR-TAF: